Check out our new PWSWeather beta!
PWSweather.com
Personal Weather Stations
Station Observations
PWSLORIS
The Farm At Fox Bay, Loris, SC 29569

The Farm At Fox BayLoris, SC 29569

Lat: 34.067097, Lon: -78.86907

Elevation: 108

Station Type: Davis Vantage Pro2 with 24 hr. FARS and solar

http://www.lorisweather.com

High Low Average
Temperature 50.9°F10.5°C 40.9°F4.9°C 45.7°F7.6°C
Dew Point 34.7°F1.5°C 19.7°F-6.8°C 24.5°F-4.2°C
Winds 8.1 mph 13.0 kmh Calm Calm 3.0 mph E4.8 kmh E
Wind Gusts 16.1 mph25.9 kmh -- 5.0 mph8.0 kmh
Humidity 58% 32% 43%
Pressure 30.65 in1037.9 mb 30.35 in1027.8 mb -
Precipitation 0.00 in0.0 mm - -
Hour Temp Dew Point Humidity Winds Wind Gusts Pressure Precip Precip Rate Daily Precip Total
12:00 AM 48.8°F9.3°C 34.7°F1.5°C 58% Calm Calm 2.3 mph3.7 kmh 30.35 in1027.8 mb - 0.00 in0.0 mm 0.00 in0.0 mm
12:15 AM 49.6°F9.8°C 34.6°F1.4°C 56% Calm Calm 2.3 mph3.7 kmh 30.36 in1028.1 mb - 0.00 in0.0 mm 0.00 in0.0 mm
12:30 AM 50.9°F10.5°C 33.9°F1.1°C 52% 1.2 mph NNW1.9 kmh NNW 4.6 mph7.4 kmh 30.36 in1028.1 mb - 0.00 in0.0 mm 0.00 in0.0 mm
12:45 AM 50.9°F10.5°C 32.9°F0.5°C 50% 1.2 mph N1.9 kmh N 3.5 mph5.6 kmh 30.37 in1028.4 mb - 0.00 in0.0 mm 0.00 in0.0 mm
01:00 AM 50.5°F10.3°C 32.5°F0.3°C 50% 2.3 mph N3.7 kmh N 3.5 mph5.6 kmh 30.37 in1028.4 mb - 0.00 in0.0 mm 0.00 in0.0 mm
01:15 AM 50.1°F10.1°C 32.2°F0.1°C 50% 1.2 mph N1.9 kmh N 3.5 mph5.6 kmh 30.38 in1028.8 mb - 0.00 in0.0 mm 0.00 in0.0 mm
01:30 AM 49.8°F9.9°C 32.3°F0.2°C 51% 1.2 mph N1.9 kmh N 2.3 mph3.7 kmh 30.38 in1028.8 mb - 0.00 in0.0 mm 0.00 in0.0 mm
01:45 AM 49.7°F9.8°C 32.3°F0.2°C 51% 2.3 mph N3.7 kmh N 3.5 mph5.6 kmh 30.38 in1028.8 mb - 0.00 in0.0 mm 0.00 in0.0 mm
02:00 AM 49.8°F9.9°C 31.9°F-0.1°C 50% 1.2 mph N1.9 kmh N 3.5 mph5.6 kmh 30.39 in1029.1 mb - 0.00 in0.0 mm 0.00 in0.0 mm
02:15 AM 49.9°F9.9°C 30.5°F-0.8°C 47% 4.6 mph NNE7.4 kmh NNE 8.1 mph13.0 kmh 30.39 in1029.1 mb - 0.00 in0.0 mm 0.00 in0.0 mm
02:30 AM 49.9°F9.9°C 30.4°F-0.9°C 47% 2.3 mph N3.7 kmh N 3.5 mph5.6 kmh 30.40 in1029.5 mb - 0.00 in0.0 mm 0.00 in0.0 mm
02:45 AM 49.6°F9.8°C 29.6°F-1.3°C 46% 1.2 mph NNE1.9 kmh NNE 1.2 mph1.9 kmh 30.41 in1029.8 mb - 0.00 in0.0 mm 0.00 in0.0 mm
03:00 AM 49.4°F9.7°C 28.9°F-1.7°C 45% 1.2 mph NNE1.9 kmh NNE 8.1 mph13.0 kmh 30.42 in1030.1 mb - 0.00 in0.0 mm 0.00 in0.0 mm
03:15 AM 49.3°F9.6°C 27.7°F-2.4°C 43% 1.2 mph N1.9 kmh N 4.6 mph7.4 kmh 30.42 in1030.1 mb - 0.00 in0.0 mm 0.00 in0.0 mm
03:30 AM 49.1°F9.5°C 26.4°F-3.1°C 41% 3.5 mph NNE5.6 kmh NNE 3.5 mph5.6 kmh 30.42 in1030.1 mb - 0.00 in0.0 mm 0.00 in0.0 mm
03:45 AM 48.4°F9.1°C 26.3°F-3.2°C 42% 2.3 mph NNW3.7 kmh NNW 3.5 mph5.6 kmh 30.43 in1030.5 mb - 0.00 in0.0 mm 0.00 in0.0 mm
04:00 AM 48.1°F8.9°C 24.9°F-3.9°C 40% 2.3 mph N3.7 kmh N 3.5 mph5.6 kmh 30.43 in1030.5 mb - 0.00 in0.0 mm 0.00 in0.0 mm
04:15 AM 47.5°F8.6°C 24.4°F-4.2°C 40% 3.5 mph NNE5.6 kmh NNE 8.1 mph13.0 kmh 30.43 in1030.5 mb - 0.00 in0.0 mm 0.00 in0.0 mm
04:30 AM 47.1°F8.4°C 24.0°F-4.4°C 40% 2.3 mph N3.7 kmh N 5.8 mph9.3 kmh 30.44 in1030.8 mb - 0.00 in0.0 mm 0.00 in0.0 mm
04:45 AM 46.6°F8.1°C 22.9°F-5.1°C 39% 3.5 mph N5.6 kmh N 5.8 mph9.3 kmh 30.45 in1031.2 mb - 0.00 in0.0 mm 0.00 in0.0 mm
05:00 AM 46.1°F7.8°C 20.6°F-6.3°C 36% 4.6 mph N7.4 kmh N 5.8 mph9.3 kmh 30.46 in1031.5 mb - 0.00 in0.0 mm 0.00 in0.0 mm
05:15 AM 45.5°F7.5°C 20.0°F-6.7°C 36% 2.3 mph NNE3.7 kmh NNE 3.5 mph5.6 kmh 30.48 in1032.2 mb - 0.00 in0.0 mm 0.00 in0.0 mm
05:30 AM 44.7°F7.1°C 20.7°F-6.3°C 38% 3.5 mph NNE5.6 kmh NNE 9.2 mph14.8 kmh 30.49 in1032.5 mb - 0.00 in0.0 mm 0.00 in0.0 mm
05:45 AM 44.2°F6.8°C 20.2°F-6.6°C 38% 3.5 mph NNE5.6 kmh NNE 6.9 mph11.1 kmh 30.49 in1032.5 mb - 0.00 in0.0 mm 0.00 in0.0 mm
06:00 AM 43.8°F6.6°C 19.8°F-6.8°C 38% 1.2 mph N1.9 kmh N 3.5 mph5.6 kmh 30.51 in1033.2 mb - 0.00 in0.0 mm 0.00 in0.0 mm
06:15 AM 43.4°F6.3°C 20.1°F-6.6°C 39% 3.5 mph NNE5.6 kmh NNE 6.9 mph11.1 kmh 30.52 in1033.5 mb - 0.00 in0.0 mm 0.00 in0.0 mm
06:30 AM 43.0°F6.1°C 20.3°F-6.5°C 40% 1.2 mph NNE1.9 kmh NNE 3.5 mph5.6 kmh 30.53 in1033.9 mb - 0.00 in0.0 mm 0.00 in0.0 mm
06:45 AM 42.5°F5.8°C 21.0°F-6.1°C 42% 1.2 mph NNE1.9 kmh NNE 4.6 mph7.4 kmh 30.54 in1034.2 mb - 0.00 in0.0 mm 0.00 in0.0 mm
07:00 AM 42.2°F5.7°C 20.7°F-6.3°C 42% 3.5 mph N5.6 kmh N 5.8 mph9.3 kmh 30.55 in1034.5 mb - 0.00 in0.0 mm 0.00 in0.0 mm
07:15 AM 41.8°F5.4°C 21.5°F-5.8°C 44% 1.2 mph NNE1.9 kmh NNE 3.5 mph5.6 kmh 30.56 in1034.9 mb - 0.00 in0.0 mm 0.00 in0.0 mm
07:30 AM 41.5°F5.3°C 21.7°F-5.7°C 45% 2.3 mph NNE3.7 kmh NNE 6.9 mph11.1 kmh 30.57 in1035.2 mb - 0.00 in0.0 mm 0.00 in0.0 mm
07:45 AM 41.2°F5.1°C 21.4°F-5.9°C 45% 3.5 mph N5.6 kmh N 4.6 mph7.4 kmh 30.58 in1035.6 mb - 0.00 in0.0 mm 0.00 in0.0 mm
08:00 AM 41.4°F5.2°C 21.6°F-5.8°C 45% 2.3 mph N3.7 kmh N 3.5 mph5.6 kmh 30.58 in1035.6 mb - 0.00 in0.0 mm 0.00 in0.0 mm
08:15 AM 41.7°F5.4°C 22.5°F-5.3°C 46% 2.3 mph N3.7 kmh N 4.6 mph7.4 kmh 30.59 in1035.9 mb - 0.00 in0.0 mm 0.00 in0.0 mm
08:30 AM 42.3°F5.7°C 23.0°F-5.0°C 46% 3.5 mph NE5.6 kmh NE 5.8 mph9.3 kmh 30.60 in1036.2 mb - 0.00 in0.0 mm 0.00 in0.0 mm
08:45 AM 42.8°F6.0°C 23.5°F-4.7°C 46% 3.5 mph N5.6 kmh N 8.1 mph13.0 kmh 30.61 in1036.6 mb - 0.00 in0.0 mm 0.00 in0.0 mm
09:00 AM 43.6°F6.4°C 23.6°F-4.7°C 45% 3.5 mph ENE5.6 kmh ENE 6.9 mph11.1 kmh 30.61 in1036.6 mb - 0.00 in0.0 mm 0.00 in0.0 mm
09:15 AM 44.1°F6.7°C 24.6°F-4.1°C 46% 3.5 mph N5.6 kmh N 6.9 mph11.1 kmh 30.62 in1036.9 mb - 0.00 in0.0 mm 0.00 in0.0 mm
09:30 AM 44.6°F7.0°C 24.0°F-4.4°C 44% 4.6 mph NE7.4 kmh NE 9.2 mph14.8 kmh 30.62 in1036.9 mb - 0.00 in0.0 mm 0.00 in0.0 mm
09:45 AM 45.0°F7.2°C 24.9°F-3.9°C 45% 5.8 mph E9.3 kmh E 10.4 mph16.7 kmh 30.62 in1036.9 mb - 0.00 in0.0 mm 0.00 in0.0 mm
10:00 AM 45.2°F7.3°C 24.0°F-4.4°C 43% 4.6 mph ENE7.4 kmh ENE 10.4 mph16.7 kmh 30.63 in1037.3 mb - 0.00 in0.0 mm 0.00 in0.0 mm
10:15 AM 45.6°F7.6°C 23.2°F-4.9°C 41% 4.6 mph N7.4 kmh N 8.1 mph13.0 kmh 30.64 in1037.6 mb - 0.00 in0.0 mm 0.00 in0.0 mm
10:30 AM 46.0°F7.8°C 23.6°F-4.7°C 41% 5.8 mph N9.3 kmh N 12.7 mph20.4 kmh 30.65 in1037.9 mb - 0.00 in0.0 mm 0.00 in0.0 mm
10:45 AM 46.2°F7.9°C 23.2°F-4.9°C 40% 3.5 mph NNE5.6 kmh NNE 8.1 mph13.0 kmh 30.64 in1037.6 mb - 0.00 in0.0 mm 0.00 in0.0 mm
11:00 AM 46.7°F8.2°C 23.6°F-4.7°C 40% 5.8 mph N9.3 kmh N 8.1 mph13.0 kmh 30.64 in1037.6 mb - 0.00 in0.0 mm 0.00 in0.0 mm
11:15 AM 47.2°F8.4°C 23.5°F-4.7°C 39% 5.8 mph NE9.3 kmh NE 9.2 mph14.8 kmh 30.64 in1037.6 mb - 0.00 in0.0 mm 0.00 in0.0 mm
11:30 AM 47.7°F8.7°C 24.0°F-4.4°C 39% 3.5 mph NNE5.6 kmh NNE 11.5 mph18.5 kmh 30.63 in1037.3 mb - 0.00 in0.0 mm 0.00 in0.0 mm
11:45 AM 47.4°F8.6°C 23.0°F-5.0°C 38% 4.6 mph NNE7.4 kmh NNE 10.4 mph16.7 kmh 30.63 in1037.3 mb - 0.00 in0.0 mm 0.00 in0.0 mm
12:00 PM 47.8°F8.8°C 22.1°F-5.5°C 36% 8.1 mph NNE13.0 kmh NNE 12.7 mph20.4 kmh 30.63 in1037.3 mb - 0.00 in0.0 mm 0.00 in0.0 mm
12:15 PM 47.8°F8.8°C 22.1°F-5.5°C 36% 5.8 mph ENE9.3 kmh ENE 9.2 mph14.8 kmh 30.62 in1036.9 mb - 0.00 in0.0 mm 0.00 in0.0 mm
12:30 PM 47.6°F8.7°C 22.6°F-5.2°C 37% 6.9 mph NE11.1 kmh NE 11.5 mph18.5 kmh 30.61 in1036.6 mb - 0.00 in0.0 mm 0.00 in0.0 mm
12:45 PM 48.5°F9.2°C 23.4°F-4.8°C 37% 8.1 mph NE13.0 kmh NE 16.1 mph25.9 kmh 30.61 in1036.6 mb - 0.00 in0.0 mm 0.00 in0.0 mm
01:00 PM 48.4°F9.1°C 22.0°F-5.6°C 35% 5.8 mph NE9.3 kmh NE 10.4 mph16.7 kmh 30.60 in1036.2 mb - 0.00 in0.0 mm 0.00 in0.0 mm
01:15 PM 48.2°F9.0°C 22.5°F-5.3°C 36% 5.8 mph NE9.3 kmh NE 15.0 mph24.1 kmh 30.59 in1035.9 mb - 0.00 in0.0 mm 0.00 in0.0 mm
01:30 PM 48.2°F9.0°C 21.8°F-5.7°C 35% 6.9 mph NE11.1 kmh NE 11.5 mph18.5 kmh 30.60 in1036.2 mb - 0.00 in0.0 mm 0.00 in0.0 mm
01:45 PM 48.5°F9.2°C 22.7°F-5.2°C 36% 5.8 mph N9.3 kmh N 11.5 mph18.5 kmh 30.59 in1035.9 mb - 0.00 in0.0 mm 0.00 in0.0 mm
02:00 PM 48.8°F9.3°C 23.0°F-5.0°C 36% 4.6 mph N7.4 kmh N 9.2 mph14.8 kmh 30.59 in1035.9 mb - 0.00 in0.0 mm 0.00 in0.0 mm
02:15 PM 48.9°F9.4°C 21.0°F-6.1°C 33% 6.9 mph N11.1 kmh N 9.2 mph14.8 kmh 30.59 in1035.9 mb - 0.00 in0.0 mm 0.00 in0.0 mm
02:30 PM 49.0°F9.4°C 21.9°F-5.6°C 34% 4.6 mph NE7.4 kmh NE 6.9 mph11.1 kmh 30.59 in1035.9 mb - 0.00 in0.0 mm 0.00 in0.0 mm
02:45 PM 49.4°F9.7°C 22.1°F-5.5°C 34% 5.8 mph NE9.3 kmh NE 8.1 mph13.0 kmh 30.59 in1035.9 mb - 0.00 in0.0 mm 0.00 in0.0 mm
03:00 PM 49.0°F9.4°C 21.8°F-5.7°C 34% 3.5 mph NE5.6 kmh NE 4.6 mph7.4 kmh 30.59 in1035.9 mb - 0.00 in0.0 mm 0.00 in0.0 mm
03:15 PM 48.5°F9.2°C 21.3°F-5.9°C 34% 5.8 mph NNE9.3 kmh NNE 11.5 mph18.5 kmh 30.59 in1035.9 mb - 0.00 in0.0 mm 0.00 in0.0 mm
03:30 PM 48.6°F9.2°C 21.5°F-5.8°C 34% 3.5 mph NNE5.6 kmh NNE 3.5 mph5.6 kmh 30.59 in1035.9 mb - 0.00 in0.0 mm 0.00 in0.0 mm
03:45 PM 48.3°F9.1°C 19.8°F-6.8°C 32% 4.6 mph NE7.4 kmh NE 8.1 mph13.0 kmh 30.59 in1035.9 mb - 0.00 in0.0 mm 0.00 in0.0 mm
04:00 PM 48.1°F8.9°C 21.0°F-6.1°C 34% 3.5 mph NE5.6 kmh NE 6.9 mph11.1 kmh 30.59 in1035.9 mb - 0.00 in0.0 mm 0.00 in0.0 mm
04:15 PM 47.9°F8.8°C 20.8°F-6.2°C 34% 4.6 mph ENE7.4 kmh ENE 6.9 mph11.1 kmh 30.59 in1035.9 mb - 0.00 in0.0 mm 0.00 in0.0 mm
04:30 PM 47.4°F8.6°C 19.7°F-6.8°C 33% 3.5 mph NNE5.6 kmh NNE 3.5 mph5.6 kmh 30.60 in1036.2 mb - 0.00 in0.0 mm 0.00 in0.0 mm
04:45 PM 47.1°F8.4°C 20.8°F-6.2°C 35% 2.3 mph N3.7 kmh N 3.5 mph5.6 kmh 30.60 in1036.2 mb - 0.00 in0.0 mm 0.00 in0.0 mm
05:00 PM 46.4°F8.0°C 22.1°F-5.5°C 38% 1.2 mph NE1.9 kmh NE 3.5 mph5.6 kmh 30.61 in1036.6 mb - 0.00 in0.0 mm 0.00 in0.0 mm
05:15 PM 45.8°F7.7°C 22.8°F-5.1°C 40% Calm Calm -- 30.62 in1036.9 mb - 0.00 in0.0 mm 0.00 in0.0 mm
05:30 PM 45.2°F7.3°C 23.4°F-4.8°C 42% 1.2 mph NE1.9 kmh NE 3.5 mph5.6 kmh 30.63 in1037.3 mb - 0.00 in0.0 mm 0.00 in0.0 mm
05:45 PM 44.9°F7.2°C 23.7°F-4.6°C 43% Calm Calm -- 30.63 in1037.3 mb - 0.00 in0.0 mm 0.00 in0.0 mm
06:00 PM 44.8°F7.1°C 23.6°F-4.7°C 43% Calm Calm -- 30.63 in1037.3 mb - 0.00 in0.0 mm 0.00 in0.0 mm
06:15 PM 44.6°F7.0°C 24.5°F-4.2°C 45% Calm Calm 2.3 mph3.7 kmh 30.63 in1037.3 mb - 0.00 in0.0 mm 0.00 in0.0 mm
06:30 PM 44.4°F6.9°C 24.4°F-4.2°C 45% Calm Calm -- 30.62 in1036.9 mb - 0.00 in0.0 mm 0.00 in0.0 mm
06:45 PM 44.3°F6.8°C 24.3°F-4.3°C 45% 1.2 mph ENE1.9 kmh ENE 4.6 mph7.4 kmh 30.63 in1037.3 mb - 0.00 in0.0 mm 0.00 in0.0 mm
07:00 PM 44.2°F6.8°C 24.7°F-4.1°C 46% 1.2 mph E1.9 kmh E 3.5 mph5.6 kmh 30.63 in1037.3 mb - 0.00 in0.0 mm 0.00 in0.0 mm
07:15 PM 43.9°F6.6°C 24.4°F-4.2°C 46% Calm Calm -- 30.64 in1037.6 mb - 0.00 in0.0 mm 0.00 in0.0 mm
07:30 PM 43.8°F6.6°C 23.8°F-4.6°C 45% Calm Calm -- 30.64 in1037.6 mb - 0.00 in0.0 mm 0.00 in0.0 mm
07:45 PM 43.2°F6.2°C 24.8°F-4.0°C 48% Calm Calm -- 30.65 in1037.9 mb - 0.00 in0.0 mm 0.00 in0.0 mm
08:00 PM 42.8°F6.0°C 25.4°F-3.7°C 50% Calm Calm -- 30.64 in1037.6 mb - 0.00 in0.0 mm 0.00 in0.0 mm
08:15 PM 42.3°F5.7°C 25.5°F-3.6°C 51% Calm Calm -- 30.64 in1037.6 mb - 0.00 in0.0 mm 0.00 in0.0 mm
08:30 PM 42.3°F5.7°C 26.4°F-3.1°C 53% Calm Calm -- 30.64 in1037.6 mb - 0.00 in0.0 mm 0.00 in0.0 mm
08:45 PM 41.8°F5.4°C 26.3°F-3.2°C 54% Calm Calm -- 30.64 in1037.6 mb - 0.00 in0.0 mm 0.00 in0.0 mm
09:00 PM 41.0°F5.0°C 27.3°F-2.6°C 58% Calm Calm -- 30.64 in1037.6 mb - 0.00 in0.0 mm 0.00 in0.0 mm
09:15 PM 41.1°F5.1°C 26.1°F-3.3°C 55% Calm Calm -- 30.65 in1037.9 mb - 0.00 in0.0 mm 0.00 in0.0 mm
09:30 PM 40.9°F4.9°C 26.0°F-3.3°C 55% Calm Calm -- 30.65 in1037.9 mb - 0.00 in0.0 mm 0.00 in0.0 mm
09:45 PM 41.2°F5.1°C 27.1°F-2.7°C 57% Calm Calm -- 30.65 in1037.9 mb - 0.00 in0.0 mm 0.00 in0.0 mm
10:00 PM 41.5°F5.3°C 25.7°F-3.5°C 53% Calm Calm -- 30.64 in1037.6 mb - 0.00 in0.0 mm 0.00 in0.0 mm
10:15 PM 41.6°F5.3°C 25.7°F-3.5°C 53% Calm Calm -- 30.63 in1037.3 mb - 0.00 in0.0 mm 0.00 in0.0 mm
10:30 PM 41.6°F5.3°C 25.3°F-3.7°C 52% 2.3 mph E3.7 kmh E 3.5 mph5.6 kmh 30.64 in1037.6 mb - 0.00 in0.0 mm 0.00 in0.0 mm
10:45 PM 41.5°F5.3°C 25.2°F-3.8°C 52% 1.2 mph E1.9 kmh E 1.2 mph1.9 kmh 30.63 in1037.3 mb - 0.00 in0.0 mm 0.00 in0.0 mm
11:00 PM 41.7°F5.4°C 24.9°F-3.9°C 51% 1.2 mph E1.9 kmh E 2.3 mph3.7 kmh 30.64 in1037.6 mb - 0.00 in0.0 mm 0.00 in0.0 mm
11:15 PM 41.7°F5.4°C 24.9°F-3.9°C 51% Calm Calm -- 30.63 in1037.3 mb - 0.00 in0.0 mm 0.00 in0.0 mm
11:30 PM 41.7°F5.4°C 25.4°F-3.7°C 52% Calm Calm -- 30.63 in1037.3 mb - 0.00 in0.0 mm 0.00 in0.0 mm
11:45 PM 41.7°F5.4°C 25.4°F-3.7°C 52% 2.3 mph ENE3.7 kmh ENE 3.5 mph5.6 kmh 30.63 in1037.3 mb - 0.00 in0.0 mm 0.00 in0.0 mm